Time;durP1;ratioP1;P1;durP2;ratioP2;P2;SDS_P1;SDS_P2;PMS_P1;PMS_P2;Temp;Humidity;BMP_temperature;BMP_pressure;BME280_temperature;BME280_humidity;BME280_pressure;Samples;Min_cycle;Max_cycle;Signal;HPM_P1;HPM_P2
2022/07/06 00:02:45;;;;;;;1.88;0.68;;;24.20;45.10;23.30;102031.00;;;;5023454;28;20495;-71
2022/07/06 00:05:31;;;;;;;2.08;0.60;;;24.20;45.20;23.30;102033.00;;;;5021050;28;20038;-70
2022/07/06 00:08:18;;;;;;;2.00;0.70;;;24.20;45.20;23.30;102031.00;;;;5025727;28;20072;-71
2022/07/06 00:11:04;;;;;;;0.43;0.43;;;24.20;45.30;23.30;102033.00;;;;5025545;28;20040;-71
2022/07/06 00:13:50;;;;;;;1.60;0.50;;;24.20;45.20;23.30;102032.00;;;;5022854;28;20041;-71
2022/07/06 00:16:36;;;;;;;2.00;0.50;;;24.20;45.30;23.30;102031.00;;;;5024591;28;20056;-70
2022/07/06 00:19:22;;;;;;;2.03;0.60;;;24.20;45.10;23.30;102028.00;;;;5023705;28;20038;-70
2022/07/06 00:22:08;;;;;;;0.73;0.50;;;24.20;45.10;23.30;102025.00;;;;5025182;28;20457;-71
2022/07/06 00:24:54;;;;;;;0.93;0.50;;;24.10;45.30;23.30;102027.00;;;;5025124;28;20048;-71
2022/07/06 00:27:40;;;;;;;1.02;0.40;;;24.20;45.30;23.30;102023.00;;;;5023042;28;20042;-71
2022/07/06 00:30:26;;;;;;;0.88;0.52;;;24.20;45.40;23.30;102026.00;;;;5029760;28;20053;-70
2022/07/06 00:33:12;;;;;;;2.33;0.50;;;24.20;45.40;23.30;102016.00;;;;5023534;28;20091;-71
2022/07/06 00:35:58;;;;;;;3.47;0.70;;;24.10;45.20;23.30;102022.00;;;;5025130;28;20498;-71
2022/07/06 00:38:44;;;;;;;0.85;0.52;;;24.20;45.20;23.30;102025.00;;;;5021495;28;20050;-71
2022/07/06 00:41:31;;;;;;;0.93;0.65;;;24.10;45.30;23.30;102024.00;;;;5025788;28;20068;-71
2022/07/06 00:44:17;;;;;;;1.08;0.43;;;24.10;45.10;23.30;102029.00;;;;5025162;28;20033;-70
2022/07/06 00:47:03;;;;;;;1.70;0.57;;;24.10;45.20;23.30;102026.00;;;;5018194;28;20040;-71
2022/07/06 00:52:55;;;;;;;1.40;0.40;;;24.10;45.20;23.20;102035.00;;;;5022507;28;20076;-70
2022/07/06 00:55:42;;;;;;;1.40;0.63;;;24.10;45.10;23.20;102027.00;;;;5026000;28;20054;-70
2022/07/06 00:58:28;;;;;;;2.40;0.60;;;24.10;45.10;23.20;102035.00;;;;5020881;28;20139;-70
2022/07/06 01:01:14;;;;;;;1.42;0.65;;;24.10;45.20;23.20;102039.00;;;;5012399;28;20041;-70
2022/07/06 01:04:00;;;;;;;1.77;0.45;;;24.00;45.10;23.20;102037.00;;;;5024944;28;20708;-71
2022/07/06 01:06:47;;;;;;;1.55;0.38;;;24.10;45.20;23.20;102039.00;;;;5023119;28;20038;-71
2022/07/06 01:09:33;;;;;;;2.10;0.60;;;24.00;45.20;23.20;102035.00;;;;5021381;28;20080;-70
2022/07/06 01:12:19;;;;;;;1.50;0.52;;;24.00;45.30;23.20;102036.00;;;;5037296;28;20049;-70
2022/07/06 01:15:08;;;;;;;2.15;0.57;;;24.00;45.30;23.20;102035.00;;;;5029083;28;20131;-71
2022/07/06 01:17:54;;;;;;;0.85;0.60;;;24.00;45.20;23.20;102032.00;;;;5021012;28;20042;-70
2022/07/06 01:20:40;;;;;;;3.20;0.80;;;24.00;45.30;23.20;102033.00;;;;5026245;28;20045;-71
2022/07/06 01:23:26;;;;;;;1.25;0.45;;;24.00;45.20;23.20;102022.00;;;;5025315;28;20080;-71
2022/07/06 01:26:14;;;;;;;1.85;0.77;;;24.00;45.30;23.20;102022.00;;;;5019160;28;20041;-71
2022/07/06 01:29:00;;;;;;;1.08;0.60;;;24.00;45.20;23.20;102019.00;;;;5019852;28;20426;-71
2022/07/06 01:31:50;;;;;;;1.45;0.50;;;24.00;45.20;23.20;102022.00;;;;5021661;28;20052;-71
2022/07/06 01:34:36;;;;;;;0.68;0.50;;;24.00;45.30;23.20;102018.00;;;;5017583;28;20041;-71
2022/07/06 01:37:22;;;;;;;1.02;0.60;;;24.00;45.30;23.20;102026.00;;;;5018499;28;20051;-71
2022/07/06 01:40:10;;;;;;;1.10;0.50;;;24.00;45.40;23.10;102017.00;;;;5027333;28;20081;-71
2022/07/06 01:42:56;;;;;;;;;;;24.00;45.40;23.10;102027.00;;;;5022864;28;20045;-70
2022/07/06 01:45:42;;;;;;;0.55;0.30;;;24.00;45.30;23.10;102025.00;;;;5025324;28;20167;-71
2022/07/06 01:48:28;;;;;;;1.10;0.50;;;24.00;45.40;23.10;102021.00;;;;5016645;28;20411;-70
2022/07/06 01:51:14;;;;;;;1.98;0.50;;;24.00;45.30;23.10;102028.00;;;;5023408;28;20037;-70
2022/07/06 01:54:00;;;;;;;1.17;0.77;;;24.00;45.30;23.10;102021.00;;;;5023710;28;20049;-70
2022/07/06 01:56:47;;;;;;;0.95;0.40;;;23.90;45.20;23.10;102020.00;;;;5018746;28;20044;-71
2022/07/06 01:59:33;;;;;;;0.60;0.50;;;23.90;45.30;23.10;102025.00;;;;5019526;28;20053;-70
2022/07/06 02:02:19;;;;;;;0.98;0.50;;;23.90;45.20;23.10;102025.00;;;;5023922;28;20156;-71
2022/07/06 02:05:05;;;;;;;2.00;0.80;;;23.90;45.30;23.10;102021.00;;;;5026038;28;20064;-70
2022/07/06 02:07:51;;;;;;;1.92;0.68;;;23.90;45.20;23.10;102027.00;;;;5018365;28;20115;-71
2022/07/06 02:10:37;;;;;;;1.30;0.55;;;23.90;45.20;23.10;102034.00;;;;5023860;28;20222;-71
2022/07/06 02:13:24;;;;;;;2.63;0.75;;;23.90;45.20;23.10;102025.00;;;;5023124;28;20067;-71
2022/07/06 02:16:10;;;;;;;1.58;0.90;;;23.80;45.20;23.10;102030.00;;;;5022794;28;20080;-70
2022/07/06 02:18:56;;;;;;;1.10;0.47;;;23.90;45.30;23.10;102025.00;;;;5022411;28;20052;-71
2022/07/06 02:21:42;;;;;;;2.53;0.70;;;23.90;45.30;23.00;102021.00;;;;5017512;28;20090;-71
2022/07/06 02:24:28;;;;;;;1.60;0.50;;;23.80;45.20;23.00;102027.00;;;;5018848;28;20034;-70
2022/07/06 02:27:14;;;;;;;2.78;0.77;;;23.90;45.40;23.00;102018.00;;;;5021433;28;20047;-70
2022/07/06 02:30:00;;;;;;;2.47;0.50;;;23.80;45.30;23.00;102011.00;;;;5026592;28;20518;-70
2022/07/06 02:32:46;;;;;;;1.77;0.88;;;23.80;45.40;23.00;102013.00;;;;5024503;28;20033;-71
2022/07/06 02:35:33;;;;;;;0.45;0.40;;;23.90;45.30;23.00;102013.00;;;;5020820;28;20289;-70
2022/07/06 02:38:19;;;;;;;1.60;0.60;;;23.80;45.20;23.00;102020.00;;;;5024816;28;20708;-70
2022/07/06 02:41:05;;;;;;;1.23;0.60;;;23.80;45.20;23.00;102026.00;;;;5026293;28;20046;-71
2022/07/06 02:43:51;;;;;;;1.75;0.57;;;23.80;45.30;23.00;102026.00;;;;5018540;28;20428;-71
2022/07/06 02:46:37;;;;;;;1.02;0.43;;;23.80;45.40;23.00;102027.00;;;;5023661;28;20064;-70
2022/07/06 02:49:23;;;;;;;2.03;0.70;;;23.80;45.40;23.00;102021.00;;;;5019145;28;20476;-70
2022/07/06 02:52:09;;;;;;;1.77;0.63;;;23.80;45.40;23.00;102024.00;;;;5031492;28;20053;-70
2022/07/06 02:54:55;;;;;;;0.40;0.40;;;23.80;45.40;23.00;102026.00;;;;5029138;28;20064;-70
2022/07/06 02:57:41;;;;;;;1.65;0.55;;;23.80;45.40;23.00;102026.00;;;;5022142;28;20050;-70
2022/07/06 03:00:27;;;;;;;1.25;0.60;;;23.80;45.30;23.00;102035.00;;;;5029457;28;20612;-70
2022/07/06 03:03:13;;;;;;;0.93;0.52;;;23.80;45.40;23.00;102031.00;;;;5023561;28;20045;-70
2022/07/06 03:05:59;;;;;;;1.08;0.60;;;23.80;45.40;23.00;102028.00;;;;5026215;28;20491;-70
2022/07/06 03:08:45;;;;;;;1.73;0.70;;;23.80;45.50;23.00;102027.00;;;;5030220;28;20107;-70
2022/07/06 03:11:34;;;;;;;1.42;0.70;;;23.80;45.40;23.00;102029.00;;;;5024709;28;20045;-70
2022/07/06 03:14:20;;;;;;;1.65;0.73;;;23.80;45.40;23.00;102029.00;;;;5028170;28;20120;-70
2022/07/06 03:17:06;;;;;;;0.88;0.50;;;23.70;45.40;22.90;102039.00;;;;5027723;28;20038;-71
2022/07/06 03:19:52;;;;;;;1.75;0.60;;;23.70;45.30;22.90;102040.00;;;;5030277;28;20554;-71
2022/07/06 03:22:38;;;;;;;1.48;0.65;;;23.70;45.50;22.90;102037.00;;;;5024828;28;20045;-71
2022/07/06 03:25:24;;;;;;;2.05;0.70;;;23.70;45.40;22.90;102040.00;;;;5024976;28;20491;-71
2022/07/06 03:28:10;;;;;;;0.50;0.50;;;23.70;45.40;22.90;102043.00;;;;5030599;28;20033;-71
2022/07/06 03:30:56;;;;;;;1.95;0.73;;;23.70;45.40;22.90;102034.00;;;;5029582;28;20076;-71
2022/07/06 03:33:42;;;;;;;0.73;0.52;;;23.70;45.40;22.90;102038.00;;;;5026468;28;20112;-71
2022/07/06 03:36:28;;;;;;;0.65;0.60;;;23.70;45.40;22.90;102040.00;;;;5028077;28;20075;-71
2022/07/06 03:39:14;;;;;;;1.17;0.50;;;23.70;45.50;22.90;102029.00;;;;5024857;28;20038;-71
2022/07/06 03:42:00;;;;;;;1.50;0.60;;;23.70;45.50;22.90;102035.00;;;;5032873;28;20041;-71
2022/07/06 03:44:46;;;;;;;0.95;0.60;;;23.70;45.40;22.90;102039.00;;;;5024187;28;20037;-71
2022/07/06 03:47:33;;;;;;;0.55;0.50;;;23.70;45.40;22.90;102033.00;;;;5023697;28;20111;-71
2022/07/06 03:50:19;;;;;;;0.85;0.70;;;23.70;45.40;22.90;102029.00;;;;5025000;28;20045;-71
2022/07/06 03:53:05;;;;;;;1.30;0.70;;;23.70;45.50;22.90;102029.00;;;;5022307;28;20033;-71
2022/07/06 03:59:00;;;;;;;1.17;0.50;;;23.70;45.50;22.90;102029.00;;;;5027851;28;20085;-71
2022/07/06 04:01:46;;;;;;;1.02;0.45;;;23.70;45.50;22.90;102027.00;;;;5025483;28;20044;-71
2022/07/06 04:04:34;;;;;;;1.35;0.50;;;23.70;45.60;22.90;102036.00;;;;5024725;28;20430;-70
2022/07/06 04:07:20;;;;;;;1.75;0.65;;;23.60;45.60;22.90;102036.00;;;;5021310;28;20037;-71
2022/07/06 04:10:07;;;;;;;0.50;0.50;;;23.70;45.60;22.90;102033.00;;;;5029000;28;20421;-71
2022/07/06 04:12:53;;;;;;;0.60;0.47;;;23.70;45.70;22.90;102039.00;;;;5017757;28;20052;-71
2022/07/06 04:15:39;;;;;;;1.05;0.57;;;23.70;45.70;22.90;102043.00;;;;5021694;28;20042;-70
2022/07/06 04:18:25;;;;;;;1.77;0.77;;;23.70;45.60;22.90;102043.00;;;;5024755;28;20037;-71
2022/07/06 04:21:11;;;;;;;3.28;0.70;;;23.70;45.80;22.90;102043.00;;;;5026882;28;20045;-70
2022/07/06 04:23:57;;;;;;;1.95;0.70;;;23.70;45.80;22.90;102027.00;;;;5024187;28;20037;-70
2022/07/06 04:26:43;;;;;;;1.85;0.88;;;23.70;45.80;22.80;102027.00;;;;5024200;28;20033;-71
2022/07/06 04:29:29;;;;;;;2.40;0.80;;;23.70;45.80;22.90;102027.00;;;;5018347;28;20403;-71
2022/07/06 04:32:15;;;;;;;1.65;0.65;;;23.70;45.70;22.90;102030.00;;;;5026951;28;20048;-70
2022/07/06 04:35:02;;;;;;;0.88;0.30;;;23.70;45.80;22.90;102025.00;;;;5030447;28;20479;-70
2022/07/06 04:37:49;;;;;;;1.75;0.60;;;23.70;45.80;22.90;102032.00;;;;4995720;28;20088;-71
2022/07/06 04:40:35;;;;;;;3.33;0.45;;;23.70;45.70;22.90;102032.00;;;;5023301;28;20060;-71
2022/07/06 04:43:21;;;;;;;2.72;0.68;;;23.80;45.70;22.90;102035.00;;;;5020441;28;20410;-71
2022/07/06 04:46:07;;;;;;;4.57;0.80;;;23.70;45.70;22.90;102034.00;;;;5025811;28;20107;-70
2022/07/06 04:48:53;;;;;;;4.55;0.80;;;23.70;45.60;22.90;102033.00;;;;5024949;28;20388;-71
2022/07/06 04:51:39;;;;;;;2.05;0.60;;;23.70;45.70;22.90;102029.00;;;;5021556;28;20041;-71
2022/07/06 04:54:25;;;;;;;1.02;0.60;;;23.70;45.80;22.90;102029.00;;;;5026047;28;20498;-71
2022/07/06 04:57:11;;;;;;;0.55;0.50;;;23.70;45.80;22.90;102028.00;;;;5023297;28;20030;-70
2022/07/06 04:59:57;;;;;;;1.83;0.70;;;23.70;45.70;22.90;102029.00;;;;5024557;28;20049;-71
2022/07/06 05:02:43;;;;;;;2.10;0.90;;;23.70;45.80;22.90;102037.00;;;;5002334;28;20241;-70
2022/07/06 05:05:29;;;;;;;2.88;1.05;;;23.70;45.70;22.90;102045.00;;;;5020584;28;20271;-70
2022/07/06 05:08:15;;;;;;;0.65;0.60;;;23.70;45.80;22.90;102037.00;;;;5028604;28;20042;-70
2022/07/06 05:11:01;;;;;;;3.28;0.70;;;23.60;45.70;22.90;102044.00;;;;5021853;28;20513;-70
2022/07/06 05:13:47;;;;;;;1.90;0.57;;;23.70;45.80;22.90;102040.00;;;;5020894;28;20045;-71
2022/07/06 05:16:33;;;;;;;2.10;0.60;;;23.70;45.80;22.80;102042.00;;;;5049887;28;20042;-71
2022/07/06 05:19:19;;;;;;;3.60;0.80;;;23.70;45.70;22.80;102044.00;;;;5023110;28;20056;-71
2022/07/06 05:22:05;;;;;;;1.92;0.70;;;23.70;45.70;22.90;102039.00;;;;5020247;28;20046;-71
2022/07/06 05:24:52;;;;;;;10.75;2.15;;;23.70;45.80;22.90;102048.00;;;;5020818;28;20459;-71
2022/07/06 05:27:38;;;;;;;1.05;0.50;;;23.70;45.90;22.80;102047.00;;;;5023124;28;20037;-71
2022/07/06 05:30:24;;;;;;;2.20;0.80;;;23.70;46.30;22.80;102049.00;;;;5022451;28;20481;-71
2022/07/06 05:33:10;;;;;;;1.73;0.63;;;23.70;45.80;22.80;102054.00;;;;5024814;28;20069;-71
2022/07/06 05:35:56;;;;;;;1.25;0.82;;;23.70;45.80;22.90;102043.00;;;;5023623;28;20041;-71
2022/07/06 05:38:42;;;;;;;1.67;0.73;;;23.70;46.00;22.80;102049.00;;;;5020146;28;20434;-71
2022/07/06 05:41:28;;;;;;;1.88;0.93;;;23.70;46.00;22.80;102047.00;;;;5015464;28;20299;-71
2022/07/06 05:44:14;;;;;;;1.67;0.82;;;23.70;45.90;22.80;102045.00;;;;5019800;28;20025;-71
2022/07/06 05:50:12;;;;;;;1.48;0.63;;;23.70;46.00;22.80;102047.00;;;;5021912;28;20041;-70
2022/07/06 05:53:03;;;;;;;2.63;0.90;;;23.70;45.90;22.80;102050.00;;;;5017498;28;20049;-70
2022/07/06 05:55:49;;;;;;;1.60;0.70;;;23.70;45.90;22.80;102051.00;;;;5009528;28;20049;-70
2022/07/06 05:58:35;;;;;;;3.90;0.70;;;23.70;45.90;22.80;102053.00;;;;5020005;28;20045;-71
2022/07/06 06:01:21;;;;;;;1.75;0.60;;;23.70;45.90;22.80;102061.00;;;;5018641;28;20041;-70
2022/07/06 06:04:07;;;;;;;0.95;0.60;;;23.70;45.90;22.80;102061.00;;;;5022382;28;20053;-71
2022/07/06 06:06:53;;;;;;;2.03;0.88;;;23.70;45.80;22.90;102066.00;;;;5021105;28;20156;-70
2022/07/06 06:09:39;;;;;;;1.20;0.60;;;23.70;45.90;22.80;102065.00;;;;5024753;28;20230;-71
2022/07/06 06:12:25;;;;;;;0.93;0.55;;;23.70;45.90;22.90;102067.00;;;;5018712;28;20036;-71
2022/07/06 06:15:11;;;;;;;2.53;0.57;;;23.70;45.90;22.80;102075.00;;;;5029121;28;20044;-70
2022/07/06 06:17:57;;;;;;;1.77;0.98;;;23.70;45.90;22.80;102076.00;;;;5018952;28;20041;-71
2022/07/06 06:20:43;;;;;;;1.73;0.80;;;23.70;45.90;22.80;102075.00;;;;5026051;28;20040;-71
2022/07/06 06:23:29;;;;;;;2.20;0.75;;;23.70;46.00;22.80;102080.00;;;;5021862;28;20100;-71
2022/07/06 06:26:15;;;;;;;1.33;0.63;;;23.70;45.90;22.80;102075.00;;;;5019405;28;20407;-71
2022/07/06 06:29:01;;;;;;;1.25;0.52;;;23.80;46.00;22.80;102075.00;;;;5029601;28;20096;-70
2022/07/06 06:31:49;;;;;;;3.05;0.77;;;23.70;46.00;22.80;102079.00;;;;5021610;28;20424;-71
2022/07/06 06:34:35;;;;;;;2.45;0.88;;;23.70;45.90;22.80;102080.00;;;;5019742;28;20053;-70
2022/07/06 06:37:21;;;;;;;1.70;0.80;;;23.70;45.90;22.80;102081.00;;;;5025759;28;20047;-71
2022/07/06 06:40:07;;;;;;;3.33;0.85;;;23.70;45.90;22.80;102086.00;;;;5022434;28;20053;-71
2022/07/06 06:42:53;;;;;;;3.60;0.93;;;23.70;46.00;22.80;102082.00;;;;5026881;28;20135;-71
2022/07/06 06:45:40;;;;;;;5.40;0.75;;;23.70;46.10;22.90;102078.00;;;;5022959;28;20037;-70
2022/07/06 06:48:26;;;;;;;1.20;0.75;;;23.80;46.10;22.90;102088.00;;;;5022036;28;20079;-71
2022/07/06 06:51:12;;;;;;;2.10;0.82;;;23.70;46.00;22.90;102082.00;;;;5025649;28;20090;-71
2022/07/06 06:53:58;;;;;;;1.52;0.70;;;23.70;46.00;22.80;102093.00;;;;5023597;28;20479;-71
2022/07/06 06:56:44;;;;;;;2.33;1.17;;;23.80;46.10;22.90;102105.00;;;;5024315;28;20060;-71
2022/07/06 06:59:30;;;;;;;1.10;0.68;;;23.70;46.00;22.90;102098.00;;;;5026882;28;20064;-71
2022/07/06 07:02:17;;;;;;;2.72;0.70;;;23.70;46.00;22.90;102101.00;;;;5022923;28;20041;-71
2022/07/06 07:05:04;;;;;;;2.47;0.63;;;23.80;46.30;22.90;102105.00;;;;5022906;28;20102;-71
2022/07/06 07:07:50;;;;;;;2.22;0.65;;;23.70;46.10;22.90;102100.00;;;;5021167;28;20065;-71
2022/07/06 07:10:36;;;;;;;2.17;0.98;;;23.80;46.20;22.90;102101.00;;;;5021742;28;20029;-71
2022/07/06 07:13:22;;;;;;;1.73;0.70;;;23.80;46.20;22.90;102093.00;;;;5023059;28;20047;-71
2022/07/06 07:16:08;;;;;;;0.88;0.57;;;23.70;46.10;22.90;102099.00;;;;5029151;28;20042;-71
2022/07/06 07:18:54;;;;;;;2.25;0.45;;;23.80;46.10;22.90;102091.00;;;;5025489;28;20045;-71
2022/07/06 07:21:41;;;;;;;2.55;0.80;;;23.70;46.00;22.90;102099.00;;;;5017790;28;20057;-71
2022/07/06 07:24:27;;;;;;;1.55;0.50;;;23.80;46.10;22.90;102099.00;;;;5022616;28;20049;-71
2022/07/06 07:27:13;;;;;;;2.53;0.50;;;23.80;46.20;22.90;102104.00;;;;5022018;28;20044;-71
2022/07/06 07:29:59;;;;;;;1.05;0.60;;;23.70;46.10;22.90;102094.00;;;;5022319;28;20459;-71
2022/07/06 07:32:45;;;;;;;1.15;0.50;;;23.80;46.10;22.90;102099.00;;;;5020911;28;20052;-71
2022/07/06 07:35:31;;;;;;;1.70;0.60;;;23.70;46.70;22.90;102104.00;;;;5020874;28;20049;-71
2022/07/06 07:38:17;;;;;;;1.20;0.40;;;23.80;46.10;22.90;102102.00;;;;5025741;28;20039;-71
2022/07/06 07:41:03;;;;;;;1.02;0.70;;;23.80;46.20;22.90;102107.00;;;;5021307;28;20037;-71
2022/07/06 07:43:49;;;;;;;2.40;0.60;;;23.80;46.10;22.90;102106.00;;;;5029714;28;20487;-71
2022/07/06 07:46:35;;;;;;;0.75;0.40;;;23.80;46.20;22.90;102113.00;;;;5028630;28;20041;-71
2022/07/06 07:49:21;;;;;;;0.70;0.40;;;23.80;46.20;22.90;102108.00;;;;5022329;28;20073;-71
2022/07/06 07:52:08;;;;;;;2.03;0.60;;;23.80;46.30;22.90;102106.00;;;;5032604;28;20041;-70
2022/07/06 07:54:54;;;;;;;0.88;0.50;;;23.80;46.10;22.90;102100.00;;;;5027284;28;20124;-71
2022/07/06 07:57:40;;;;;;;1.63;0.60;;;23.80;46.10;22.90;102098.00;;;;5022503;28;20558;-71
2022/07/06 08:00:27;;;;;;;2.70;0.70;;;23.80;46.20;22.90;102102.00;;;;5024730;28;20045;-71
2022/07/06 08:03:13;;;;;;;2.38;0.75;;;23.80;46.20;22.90;102105.00;;;;5028741;28;20038;-71
2022/07/06 08:05:59;;;;;;;1.40;0.45;;;23.80;46.30;22.90;102104.00;;;;5022376;28;20146;-71
2022/07/06 08:08:45;;;;;;;1.02;0.60;;;23.90;46.20;22.90;102107.00;;;;5027470;28;20041;-71
2022/07/06 08:11:31;;;;;;;0.73;0.40;;;23.90;46.30;22.90;102100.00;;;;5024684;28;20049;-71
2022/07/06 08:14:17;;;;;;;2.38;0.40;;;23.90;46.30;22.90;102098.00;;;;5024754;28;20084;-71
2022/07/06 08:17:04;;;;;;;2.17;0.63;;;23.90;46.10;23.00;102099.00;;;;5039554;28;20045;-71
2022/07/06 08:19:50;;;;;;;0.70;0.35;;;23.80;46.00;23.00;102095.00;;;;5027190;28;20087;-71
2022/07/06 08:22:36;;;;;;;1.13;0.45;;;23.90;46.00;22.90;102098.00;;;;5029580;28;20506;-71
2022/07/06 08:25:22;;;;;;;0.68;0.30;;;23.90;45.90;23.00;102105.00;;;;5022545;28;20117;-70
2022/07/06 08:28:08;;;;;;;1.58;0.50;;;23.80;45.90;22.90;102096.00;;;;5028227;28;20445;-71
2022/07/06 08:30:56;;;;;;;2.25;0.50;;;23.80;45.90;22.90;102095.00;;;;5024399;28;20033;-70
2022/07/06 08:33:42;;;;;;;0.47;0.30;;;23.90;46.00;22.90;102092.00;;;;5024661;28;20042;-71
2022/07/06 08:36:28;;;;;;;1.85;0.40;;;23.90;45.70;22.90;102085.00;;;;5026218;28;20044;-70
2022/07/06 08:39:14;;;;;;;1.20;0.50;;;23.90;45.70;22.90;102092.00;;;;5019386;28;20053;-71
2022/07/06 08:42:00;;;;;;;1.38;0.40;;;23.80;45.80;22.90;102090.00;;;;5030419;28;20045;-71
2022/07/06 08:44:46;;;;;;;2.38;0.40;;;23.80;45.70;23.00;102095.00;;;;5044700;28;20026;-71
2022/07/06 08:47:32;;;;;;;1.17;0.60;;;23.90;45.90;23.00;102092.00;;;;5021677;28;20037;-71
2022/07/06 08:50:20;;;;;;;1.88;0.40;;;23.90;45.80;23.00;102090.00;;;;5022855;28;20425;-71
2022/07/06 08:53:06;;;;;;;;;;;23.80;45.80;22.90;102092.00;;;;5019464;28;20041;-71
2022/07/06 08:55:52;;;;;;;1.13;0.40;;;23.90;45.90;22.90;102089.00;;;;5031609;28;19995;-71
2022/07/06 08:58:41;;;;;;;1.50;0.30;;;23.90;45.90;22.90;102091.00;;;;5006551;28;20033;-71
2022/07/06 09:01:27;;;;;;;1.48;0.47;;;23.90;46.00;22.90;102091.00;;;;5023194;28;20050;-70
2022/07/06 09:04:18;;;;;;;3.78;1.02;;;23.90;45.90;22.90;102089.00;;;;5020849;28;20133;-71
2022/07/06 09:07:04;;;;;;;2.38;0.60;;;23.80;45.90;22.90;102087.00;;;;5021897;28;20044;-70
2022/07/06 09:09:50;;;;;;;0.70;0.47;;;23.90;45.90;22.90;102084.00;;;;5022468;28;20494;-70
2022/07/06 09:12:36;;;;;;;1.42;0.30;;;23.90;46.00;23.00;102087.00;;;;5006275;28;20459;-70
2022/07/06 09:15:28;;;;;;;1.38;0.40;;;23.90;46.00;23.00;102096.00;;;;5022911;28;20050;-70
2022/07/06 09:18:14;;;;;;;0.55;0.25;;;23.90;46.00;23.00;102085.00;;;;5023993;28;20045;-71
2022/07/06 09:21:00;;;;;;;0.60;0.35;;;23.90;45.90;23.00;102082.00;;;;5030953;28;20525;-71
2022/07/06 09:23:46;;;;;;;1.20;0.40;;;23.90;46.60;23.00;102087.00;;;;5022969;28;20049;-71
2022/07/06 09:26:33;;;;;;;1.20;0.30;;;23.90;46.00;23.00;102091.00;;;;5020467;28;20041;-71
2022/07/06 09:29:28;;;;;;;2.47;0.50;;;23.80;45.90;23.00;102082.00;;;;5019597;28;20041;-71
2022/07/06 09:32:15;;;;;;;3.08;0.40;;;23.90;46.00;23.00;102085.00;;;;5023455;28;20048;-71
2022/07/06 09:35:02;;;;;;;0.70;0.30;;;23.90;45.90;23.00;102091.00;;;;5009674;28;20045;-71
2022/07/06 09:38:09;;;;;;;1.40;0.50;;;23.90;45.80;23.00;102090.00;;;;5017985;28;20116;-71
2022/07/06 09:40:55;;;;;;;0.82;0.20;;;23.90;45.70;23.00;102087.00;;;;5025750;28;20052;-71
2022/07/06 09:43:41;;;;;;;0.93;0.40;;;24.10;45.80;23.00;102095.00;;;;5024767;28;20130;-71
2022/07/06 09:46:27;;;;;;;1.73;0.63;;;23.90;45.70;23.00;102091.00;;;;5022775;28;20387;-71
2022/07/06 09:49:39;;;;;;;0.57;0.22;;;23.90;45.80;23.00;102093.00;;;;5022850;28;20091;-71
2022/07/06 09:52:25;;;;;;;1.42;0.22;;;23.90;45.70;23.00;102090.00;;;;5020954;28;20044;-71
2022/07/06 09:55:17;;;;;;;1.25;0.32;;;24.00;45.80;23.00;102093.00;;;;5016956;28;20044;-71
2022/07/06 09:58:03;;;;;;;1.27;0.30;;;24.00;45.70;23.00;102096.00;;;;5019843;28;20049;-71
2022/07/06 10:00:50;;;;;;;1.58;0.45;;;24.00;45.80;23.00;102108.00;;;;5021521;28;20053;-71
2022/07/06 10:03:36;;;;;;;1.00;0.10;;;24.00;45.70;23.00;102098.00;;;;5018492;28;20543;-71
2022/07/06 10:06:25;;;;;;;1.10;0.30;;;24.00;45.70;23.00;102094.00;;;;5035317;28;20471;-71
2022/07/06 10:09:11;;;;;;;2.05;0.30;;;24.00;45.60;23.00;102098.00;;;;5027235;28;20037;-71
2022/07/06 10:12:01;;;;;;;0.90;0.28;;;23.90;45.70;23.00;102094.00;;;;5019939;28;20515;-71
2022/07/06 10:14:47;;;;;;;3.55;0.35;;;24.00;45.70;23.00;102095.00;;;;5018755;28;20129;-71
2022/07/06 10:17:33;;;;;;;2.83;0.40;;;24.00;45.40;23.00;102092.00;;;;5024601;28;20095;-71
2022/07/06 10:20:20;;;;;;;1.25;0.30;;;24.00;45.30;23.00;102099.00;;;;5032129;28;20495;-71
2022/07/06 10:23:07;;;;;;;1.63;0.30;;;24.00;45.10;23.00;102092.00;;;;5053444;28;20856;-71
2022/07/06 10:25:55;;;;;;;2.60;0.20;;;24.00;45.40;23.00;102092.00;;;;5036039;28;20479;-71
2022/07/06 10:28:42;;;;;;;1.40;0.20;;;24.00;45.50;23.00;102099.00;;;;5018077;28;20567;-70
2022/07/06 10:31:29;;;;;;;1.20;0.20;;;24.00;45.50;23.00;102093.00;;;;5018948;28;20034;-71
2022/07/06 10:34:19;;;;;;;1.03;0.40;;;24.00;45.50;23.00;102096.00;;;;5030776;28;20580;-71
2022/07/06 10:37:05;;;;;;;1.02;0.30;;;24.00;45.40;23.00;102090.00;;;;5021936;28;20422;-71
2022/07/06 10:42:58;;;;;;;1.27;0.40;;;24.00;45.50;23.00;102099.00;;;;5018605;28;20114;-71
2022/07/06 10:45:47;;;;;;;0.30;0.25;;;24.00;45.30;23.00;102098.00;;;;5020490;28;20395;-71
2022/07/06 10:48:43;;;;;;;1.27;0.20;;;24.00;45.40;23.00;102097.00;;;;5011461;28;20037;-71
2022/07/06 10:51:33;;;;;;;0.57;0.28;;;24.00;45.30;23.00;102102.00;;;;5007370;28;20052;-71
2022/07/06 10:54:20;;;;;;;0.38;0.20;;;24.10;45.40;23.00;102097.00;;;;5021728;28;20048;-70
2022/07/06 10:57:10;;;;;;;0.93;0.20;;;24.00;45.30;23.00;102088.00;;;;5020716;28;20046;-71
2022/07/06 11:00:04;;;;;;;0.32;0.20;;;24.10;45.30;23.00;102086.00;;;;5019991;28;20129;-70
2022/07/06 11:02:50;;;;;;;0.63;0.20;;;24.00;45.30;23.10;102080.00;;;;4995050;28;20491;-71
2022/07/06 11:05:40;;;;;;;1.10;0.28;;;24.00;45.20;23.10;102075.00;;;;5020687;28;20037;-71
2022/07/06 11:08:52;;;;;;;0.45;0.20;;;24.10;45.10;23.00;102067.00;;;;5022913;28;20398;-71
2022/07/06 11:11:42;;;;;;;1.70;0.40;;;24.00;45.30;23.00;102065.00;;;;5023824;28;20375;-70
2022/07/06 11:14:29;;;;;;;0.77;0.20;;;24.10;45.40;23.00;102061.00;;;;5019211;28;20033;-71
2022/07/06 11:17:15;;;;;;;1.55;0.20;;;24.10;45.30;23.00;102061.00;;;;4999214;28;20112;-71
2022/07/06 11:20:11;;;;;;;1.10;0.20;;;24.10;45.30;23.10;102057.00;;;;5025430;28;20087;-70
2022/07/06 11:22:57;;;;;;;0.45;0.10;;;24.10;45.30;23.10;102061.00;;;;5023981;28;20049;-70
2022/07/06 11:25:43;;;;;;;0.73;0.38;;;24.10;45.30;23.10;102062.00;;;;4994916;28;20411;-70
2022/07/06 11:28:29;;;;;;;0.68;0.20;;;24.10;45.20;23.10;102058.00;;;;5042665;28;20037;-70
2022/07/06 11:31:15;;;;;;;1.25;0.45;;;24.10;45.20;23.10;102053.00;;;;5021292;28;20509;-71
2022/07/06 11:34:03;;;;;;;1.08;0.30;;;24.10;45.20;23.10;102054.00;;;;5025209;28;20399;-71
2022/07/06 11:36:54;;;;;;;0.55;0.13;;;24.10;45.20;23.10;102051.00;;;;5023039;28;20103;-71
2022/07/06 11:39:42;;;;;;;0.17;0.10;;;24.10;45.20;23.10;102041.00;;;;5026497;28;20056;-71
2022/07/06 11:42:28;;;;;;;1.15;0.32;;;24.10;45.10;23.10;102047.00;;;;5021517;28;20077;-71
2022/07/06 11:45:15;;;;;;;1.88;0.45;;;24.10;45.00;23.10;102042.00;;;;5030551;28;20068;-71
2022/07/06 11:48:11;;;;;;;1.35;0.20;;;24.10;45.00;23.10;102044.00;;;;4998067;28;20069;-70
2022/07/06 11:51:01;;;;;;;0.40;0.40;;;24.10;45.00;23.10;102046.00;;;;5025206;28;20048;-71
2022/07/06 11:53:51;;;;;;;0.80;0.30;;;24.10;45.10;23.10;102050.00;;;;5024827;28;20083;-71
2022/07/06 11:56:37;;;;;;;0.63;0.28;;;24.20;45.20;23.10;102045.00;;;;5025542;28;20103;-70
2022/07/06 11:59:35;;;;;;;0.75;0.20;;;24.10;45.00;23.10;102045.00;;;;5027196;28;20092;-70
2022/07/06 12:02:21;;;;;;;0.32;0.20;;;24.10;45.00;23.10;102030.00;;;;5026146;28;20041;-71
2022/07/06 12:05:07;;;;;;;0.73;0.30;;;24.10;45.10;23.10;102028.00;;;;5025737;28;20044;-71
2022/07/06 12:08:06;;;;;;;0.40;0.20;;;24.20;45.00;23.10;102033.00;;;;5022174;28;20038;-71
2022/07/06 12:10:52;;;;;;;1.50;0.30;;;24.20;45.10;23.10;102026.00;;;;5024812;28;20508;-70
2022/07/06 12:13:39;;;;;;;1.30;0.40;;;24.20;44.50;23.10;102030.00;;;;5026613;28;20056;-71
2022/07/06 12:16:35;;;;;;;0.65;0.10;;;24.20;44.50;23.10;102026.00;;;;5024985;28;20084;-71
2022/07/06 12:19:22;;;;;;;0.22;0.15;;;24.20;44.80;23.10;102026.00;;;;5024351;28;20045;-71
2022/07/06 12:22:08;;;;;;;0.47;0.28;;;24.20;44.20;23.10;102025.00;;;;5024736;28;20076;-71
2022/07/06 12:24:54;;;;;;;0.13;0.10;;;24.20;44.00;23.10;102018.00;;;;5025926;28;20412;-71
2022/07/06 12:27:40;;;;;;;0.22;0.13;;;24.20;44.20;23.10;102017.00;;;;5026712;28;20041;-70